Аэропорт: Витязево. Анапа

ICAO: URKA

METAR:
2019/05/26 14:00
URKA 261400Z 22007MPS 9999 SCT010 BKN///CB 19/18 Q1013 R22/010070 TEMPO 23010G16MPS 2000 TSRA BKN005 BKN020CB RMK QFE755/1007
METAR:
2019/05/26 12:21
TAF TAF URKA 261052Z 2612/2712 23008G14MPS 9999 SCT011 BKN020CB 
      TEMPO 2612/2624 VRB13G20MPS 0800 +TSRAGR BKN003 BKN020CB 
     FM270000 26003G08MPS 9999 BKN011 BKN020CB 
      TEMPO 2700/2712 3100 -TSRA BR BKN006 BKN020CB